sensor_id;sensor_type;location;lat;lon;timestamp;pressure;altitude;pressure_sealevel;temperature;humidity
83664;BME280;73634;47.068;15.426;2024-02-14T00:00:54;97995.72;;;2.42;66.83
83664;BME280;73634;47.068;15.426;2024-02-14T00:03:21;97996.97;;;2.39;66.95
83664;BME280;73634;47.068;15.426;2024-02-14T00:05:48;97994.03;;;2.36;67.30
83664;BME280;73634;47.068;15.426;2024-02-14T00:08:13;97995.19;;;2.40;67.56
83664;BME280;73634;47.068;15.426;2024-02-14T00:10:40;97988.47;;;2.39;67.81
83664;BME280;73634;47.068;15.426;2024-02-14T00:13:05;97995.94;;;2.40;67.24
83664;BME280;73634;47.068;15.426;2024-02-14T00:15:31;97996.38;;;2.37;68.66
83664;BME280;73634;47.068;15.426;2024-02-14T00:17:56;98002.78;;;2.28;69.10
83664;BME280;73634;47.068;15.426;2024-02-14T00:22:54;97990.59;;;2.17;69.12
83664;BME280;73634;47.068;15.426;2024-02-14T00:25:20;97995.38;;;2.13;69.43
83664;BME280;73634;47.068;15.426;2024-02-14T00:27:45;97988.28;;;2.09;69.55
83664;BME280;73634;47.068;15.426;2024-02-14T00:30:11;97987.56;;;2.01;69.33
83664;BME280;73634;47.068;15.426;2024-02-14T00:32:36;97995.69;;;1.98;69.51
83664;BME280;73634;47.068;15.426;2024-02-14T00:35:02;98002.03;;;1.96;69.45
83664;BME280;73634;47.068;15.426;2024-02-14T00:37:27;98004.78;;;1.94;69.54
83664;BME280;73634;47.068;15.426;2024-02-14T00:39:54;98009.13;;;1.94;69.84
83664;BME280;73634;47.068;15.426;2024-02-14T00:42:21;98012.69;;;1.93;69.66
83664;BME280;73634;47.068;15.426;2024-02-14T00:44:46;98012.13;;;1.91;69.97
83664;BME280;73634;47.068;15.426;2024-02-14T00:47:11;98012.31;;;1.89;70.00
83664;BME280;73634;47.068;15.426;2024-02-14T00:51:51;98026.94;;;1.89;70.37
83664;BME280;73634;47.068;15.426;2024-02-14T00:54:16;98018.84;;;1.85;69.97
83664;BME280;73634;47.068;15.426;2024-02-14T00:56:42;98025.34;;;1.88;70.03
83664;BME280;73634;47.068;15.426;2024-02-14T00:59:07;98029.69;;;1.87;69.93
83664;BME280;73634;47.068;15.426;2024-02-14T01:01:33;98022.41;;;1.84;69.70
83664;BME280;73634;47.068;15.426;2024-02-14T01:03:58;98022.66;;;1.76;70.29
83664;BME280;73634;47.068;15.426;2024-02-14T01:06:24;98024.22;;;1.77;70.44
83664;BME280;73634;47.068;15.426;2024-02-14T01:08:50;98026.41;;;1.74;70.70
83664;BME280;73634;47.068;15.426;2024-02-14T01:11:15;98026.25;;;1.68;70.88
83664;BME280;73634;47.068;15.426;2024-02-14T01:13:40;98033.94;;;1.68;70.77
83664;BME280;73634;47.068;15.426;2024-02-14T01:18:03;98032.56;;;1.66;70.07
83664;BME280;73634;47.068;15.426;2024-02-14T01:20:29;98020.72;;;1.65;70.24
83664;BME280;73634;47.068;15.426;2024-02-14T01:22:54;98022.38;;;1.59;70.61
83664;BME280;73634;47.068;15.426;2024-02-14T01:25:20;98016.66;;;1.57;71.06
83664;BME280;73634;47.068;15.426;2024-02-14T01:27:45;98018.47;;;1.50;71.34
83664;BME280;73634;47.068;15.426;2024-02-14T01:30:11;98023.63;;;1.44;72.08
83664;BME280;73634;47.068;15.426;2024-02-14T01:32:37;98016.13;;;1.42;71.71
83664;BME280;73634;47.068;15.426;2024-02-14T01:35:03;98022.44;;;1.40;71.53
83664;BME280;73634;47.068;15.426;2024-02-14T01:37:29;98031.91;;;1.39;71.60
83664;BME280;73634;47.068;15.426;2024-02-14T01:39:54;98037.63;;;1.41;71.64
83664;BME280;73634;47.068;15.426;2024-02-14T01:43:28;98031.72;;;1.34;71.62
83664;BME280;73634;47.068;15.426;2024-02-14T01:45:55;98030.94;;;1.33;71.83
83664;BME280;73634;47.068;15.426;2024-02-14T01:48:21;98032.53;;;1.28;71.86
83664;BME280;73634;47.068;15.426;2024-02-14T01:50:46;98026.25;;;1.24;72.38
83664;BME280;73634;47.068;15.426;2024-02-14T01:53:12;98027.44;;;1.21;72.24
83664;BME280;73634;47.068;15.426;2024-02-14T01:55:38;98024.88;;;1.21;72.02
83664;BME280;73634;47.068;15.426;2024-02-14T01:58:03;98019.59;;;1.16;72.59
83664;BME280;73634;47.068;15.426;2024-02-14T02:00:30;98023.94;;;1.16;72.20
83664;BME280;73634;47.068;15.426;2024-02-14T02:02:56;98026.88;;;1.13;72.54
83664;BME280;73634;47.068;15.426;2024-02-14T02:05:22;98023.13;;;1.15;72.53
83664;BME280;73634;47.068;15.426;2024-02-14T02:11:10;98021.38;;;1.09;72.68
83664;BME280;73634;47.068;15.426;2024-02-14T02:13:35;98018.63;;;0.97;73.02
83664;BME280;73634;47.068;15.426;2024-02-14T02:16:02;98021.81;;;0.93;73.29
83664;BME280;73634;47.068;15.426;2024-02-14T02:18:30;98013.91;;;0.94;73.30
83664;BME280;73634;47.068;15.426;2024-02-14T02:20:56;98024.56;;;0.98;73.01
83664;BME280;73634;47.068;15.426;2024-02-14T02:23:22;98021.59;;;0.94;73.09
83664;BME280;73634;47.068;15.426;2024-02-14T02:25:48;98030.28;;;0.93;73.15
83664;BME280;73634;47.068;15.426;2024-02-14T02:28:13;98035.59;;;0.92;73.53
83664;BME280;73634;47.068;15.426;2024-02-14T02:30:39;98033.03;;;0.92;74.18
83664;BME280;73634;47.068;15.426;2024-02-14T02:35:42;98045.69;;;0.60;75.34
83664;BME280;73634;47.068;15.426;2024-02-14T02:38:10;98047.06;;;0.56;75.77
83664;BME280;73634;47.068;15.426;2024-02-14T02:40:36;98039.38;;;0.43;76.14
83664;BME280;73634;47.068;15.426;2024-02-14T02:43:02;98045.50;;;0.42;76.32
83664;BME280;73634;47.068;15.426;2024-02-14T02:45:28;98044.13;;;0.46;75.94
83664;BME280;73634;47.068;15.426;2024-02-14T02:47:53;98053.19;;;0.49;76.26
83664;BME280;73634;47.068;15.426;2024-02-14T02:50:20;98052.38;;;0.42;76.20
83664;BME280;73634;47.068;15.426;2024-02-14T02:52:47;98054.16;;;0.41;76.73
83664;BME280;73634;47.068;15.426;2024-02-14T02:55:13;98056.94;;;0.40;76.53
83664;BME280;73634;47.068;15.426;2024-02-14T02:57:40;98053.00;;;0.37;76.67
83664;BME280;73634;47.068;15.426;2024-02-14T03:00:06;98057.94;;;0.39;76.29
83664;BME280;73634;47.068;15.426;2024-02-14T03:03:38;98056.53;;;0.43;75.99
83664;BME280;73634;47.068;15.426;2024-02-14T03:06:04;98057.50;;;0.48;75.50
83664;BME280;73634;47.068;15.426;2024-02-14T03:08:30;98057.31;;;0.43;75.73
83664;BME280;73634;47.068;15.426;2024-02-14T03:10:56;98052.97;;;0.44;75.98
83664;BME280;73634;47.068;15.426;2024-02-14T03:13:24;98068.53;;;0.49;75.32
83664;BME280;73634;47.068;15.426;2024-02-14T03:15:51;98060.84;;;0.49;75.55
83664;BME280;73634;47.068;15.426;2024-02-14T03:18:17;98062.44;;;0.50;75.29
83664;BME280;73634;47.068;15.426;2024-02-14T03:20:42;98057.13;;;0.45;76.00
83664;BME280;73634;47.068;15.426;2024-02-14T03:23:08;98048.47;;;0.39;75.72
83664;BME280;73634;47.068;15.426;2024-02-14T03:25:33;98060.09;;;0.35;75.86
83664;BME280;73634;47.068;15.426;2024-02-14T03:29:20;98060.47;;;0.32;76.07
83664;BME280;73634;47.068;15.426;2024-02-14T03:31:47;98072.69;;;0.37;76.00
83664;BME280;73634;47.068;15.426;2024-02-14T03:34:12;98072.88;;;0.35;75.97
83664;BME280;73634;47.068;15.426;2024-02-14T03:36:38;98066.97;;;0.41;75.95
83664;BME280;73634;47.068;15.426;2024-02-14T03:39:04;98059.88;;;0.37;75.94
83664;BME280;73634;47.068;15.426;2024-02-14T03:41:30;98068.34;;;0.37;75.78
83664;BME280;73634;47.068;15.426;2024-02-14T03:43:56;98072.69;;;0.37;75.97
83664;BME280;73634;47.068;15.426;2024-02-14T03:46:28;98075.84;;;0.32;75.99
83664;BME280;73634;47.068;15.426;2024-02-14T03:48:54;98081.94;;;0.31;76.12
83664;BME280;73634;47.068;15.426;2024-02-14T03:51:19;98088.44;;;0.33;75.75
83664;BME280;73634;47.068;15.426;2024-02-14T03:55:15;98091.19;;;0.32;75.87
83664;BME280;73634;47.068;15.426;2024-02-14T03:57:43;98078.38;;;0.32;76.03
83664;BME280;73634;47.068;15.426;2024-02-14T04:00:11;98081.75;;;0.32;76.38
83664;BME280;73634;47.068;15.426;2024-02-14T04:02:36;98093.75;;;0.32;75.53
83664;BME280;73634;47.068;15.426;2024-02-14T04:05:02;98096.50;;;0.30;75.71
83664;BME280;73634;47.068;15.426;2024-02-14T04:07:32;98090.00;;;0.28;75.41
83664;BME280;73634;47.068;15.426;2024-02-14T04:09:59;98089.00;;;0.29;75.39
83664;BME280;73634;47.068;15.426;2024-02-14T04:12:24;98096.88;;;0.27;76.21
83664;BME280;73634;47.068;15.426;2024-02-14T04:14:50;98088.63;;;0.32;75.67
83664;BME280;73634;47.068;15.426;2024-02-14T04:19:47;98089.81;;;0.29;75.93
83664;BME280;73634;47.068;15.426;2024-02-14T04:22:12;98086.06;;;0.32;75.45
83664;BME280;73634;47.068;15.426;2024-02-14T04:24:38;98084.50;;;0.38;75.68
83664;BME280;73634;47.068;15.426;2024-02-14T04:27:03;98093.94;;;0.37;75.48
83664;BME280;73634;47.068;15.426;2024-02-14T04:29:29;98094.34;;;0.34;75.33
83664;BME280;73634;47.068;15.426;2024-02-14T04:31:58;98099.06;;;0.37;75.69
83664;BME280;73634;47.068;15.426;2024-02-14T04:34:24;98103.38;;;0.43;75.36
83664;BME280;73634;47.068;15.426;2024-02-14T04:36:49;98107.53;;;0.44;75.21
83664;BME280;73634;47.068;15.426;2024-02-14T04:39:14;98108.50;;;0.43;75.55
83664;BME280;73634;47.068;15.426;2024-02-14T04:44:43;98113.63;;;0.50;75.41
83664;BME280;73634;47.068;15.426;2024-02-14T04:47:09;98114.03;;;0.53;75.31
83664;BME280;73634;47.068;15.426;2024-02-14T04:49:37;98114.81;;;0.54;75.33
83664;BME280;73634;47.068;15.426;2024-02-14T04:52:04;98098.09;;;0.58;75.19
83664;BME280;73634;47.068;15.426;2024-02-14T04:54:29;98105.56;;;0.59;75.29
83664;BME280;73634;47.068;15.426;2024-02-14T04:56:55;98112.28;;;0.60;75.12
83664;BME280;73634;47.068;15.426;2024-02-14T04:59:20;98114.44;;;0.63;75.12
83664;BME280;73634;47.068;15.426;2024-02-14T05:01:45;98109.91;;;0.65;74.74
83664;BME280;73634;47.068;15.426;2024-02-14T05:04:11;98109.72;;;0.60;74.52
83664;BME280;73634;47.068;15.426;2024-02-14T05:09:15;98112.66;;;0.51;75.08
83664;BME280;73634;47.068;15.426;2024-02-14T05:11:41;98118.75;;;0.50;75.33
83664;BME280;73634;47.068;15.426;2024-02-14T05:14:07;98121.91;;;0.52;75.00
83664;BME280;73634;47.068;15.426;2024-02-14T05:16:32;98117.19;;;0.49;74.97
83664;BME280;73634;47.068;15.426;2024-02-14T05:18:58;98117.97;;;0.49;75.61
83664;BME280;73634;47.068;15.426;2024-02-14T05:21:23;98119.75;;;0.49;75.34
83664;BME280;73634;47.068;15.426;2024-02-14T05:23:48;98114.81;;;0.47;75.44
83664;BME280;73634;47.068;15.426;2024-02-14T05:26:15;98113.63;;;0.43;76.01
83664;BME280;73634;47.068;15.426;2024-02-14T05:31:43;98120.50;;;0.43;76.02
83664;BME280;73634;47.068;15.426;2024-02-14T05:34:08;98115.59;;;0.41;75.64
83664;BME280;73634;47.068;15.426;2024-02-14T05:36:35;98115.03;;;0.39;75.89
83664;BME280;73634;47.068;15.426;2024-02-14T05:39:00;98115.81;;;0.40;75.91
83664;BME280;73634;47.068;15.426;2024-02-14T05:41:26;98111.44;;;0.40;76.19
83664;BME280;73634;47.068;15.426;2024-02-14T05:43:51;98121.09;;;0.45;75.74
83664;BME280;73634;47.068;15.426;2024-02-14T05:46:16;98121.91;;;0.45;76.17
83664;BME280;73634;47.068;15.426;2024-02-14T05:48:41;98120.13;;;0.46;75.56
83664;BME280;73634;47.068;15.426;2024-02-14T05:51:07;98115.41;;;0.43;75.92
83664;BME280;73634;47.068;15.426;2024-02-14T05:54:51;98117.16;;;0.42;75.67
83664;BME280;73634;47.068;15.426;2024-02-14T05:57:17;98116.59;;;0.47;76.12
83664;BME280;73634;47.068;15.426;2024-02-14T05:59:42;98117.56;;;0.46;75.60
83664;BME280;73634;47.068;15.426;2024-02-14T06:02:07;98123.09;;;0.49;75.19
83664;BME280;73634;47.068;15.426;2024-02-14T06:04:35;98117.97;;;0.49;75.72
83664;BME280;73634;47.068;15.426;2024-02-14T06:07:01;98117.00;;;0.57;75.63
83664;BME280;73634;47.068;15.426;2024-02-14T06:09:26;98119.16;;;0.60;75.44
83664;BME280;73634;47.068;15.426;2024-02-14T06:11:52;98121.53;;;0.61;75.10
83664;BME280;73634;47.068;15.426;2024-02-14T06:14:18;98110.69;;;0.66;74.90
83664;BME280;73634;47.068;15.426;2024-02-14T06:16:44;98112.28;;;0.74;74.62
83664;BME280;73634;47.068;15.426;2024-02-14T06:20:47;98114.44;;;0.77;74.40
83664;BME280;73634;47.068;15.426;2024-02-14T06:23:13;98119.75;;;0.82;74.67
83664;BME280;73634;47.068;15.426;2024-02-14T06:25:38;98123.28;;;0.87;73.82
83664;BME280;73634;47.068;15.426;2024-02-14T06:28:03;98123.47;;;0.86;74.60
83664;BME280;73634;47.068;15.426;2024-02-14T06:30:29;98131.75;;;0.94;73.82
83664;BME280;73634;47.068;15.426;2024-02-14T06:32:54;98129.78;;;0.96;73.70
83664;BME280;73634;47.068;15.426;2024-02-14T06:35:20;98134.13;;;1.03;73.76
83664;BME280;73634;47.068;15.426;2024-02-14T06:37:46;98142.41;;;1.11;73.17
83664;BME280;73634;47.068;15.426;2024-02-14T06:40:12;98137.00;;;1.52;72.51
83664;BME280;73634;47.068;15.426;2024-02-14T06:42:37;98136.16;;;3.41;66.21
83664;BME280;73634;47.068;15.426;2024-02-14T06:45:58;98125.50;;;6.42;54.84
83664;BME280;73634;47.068;15.426;2024-02-14T06:48:24;98135.50;;;8.04;49.99
83664;BME280;73634;47.068;15.426;2024-02-14T06:50:50;98137.75;;;9.14;46.16
83664;BME280;73634;47.068;15.426;2024-02-14T06:53:16;98146.84;;;8.47;47.60
83664;BME280;73634;47.068;15.426;2024-02-14T06:55:42;98149.19;;;8.76;45.95
83664;BME280;73634;47.068;15.426;2024-02-14T06:58:07;98144.25;;;9.11;45.44
83664;BME280;73634;47.068;15.426;2024-02-14T07:00:33;98140.31;;;10.23;42.75
83664;BME280;73634;47.068;15.426;2024-02-14T07:02:58;98132.91;;;11.62;39.84
83664;BME280;73634;47.068;15.426;2024-02-14T07:07:56;98135.28;;;12.23;38.14
83664;BME280;73634;47.068;15.426;2024-02-14T07:10:22;98133.94;;;11.66;38.42
83664;BME280;73634;47.068;15.426;2024-02-14T07:12:47;98135.69;;;11.96;38.38
83664;BME280;73634;47.068;15.426;2024-02-14T07:15:13;98141.19;;;12.73;36.77
83664;BME280;73634;47.068;15.426;2024-02-14T07:17:38;98145.72;;;12.62;36.20
83664;BME280;73634;47.068;15.426;2024-02-14T07:20:05;98145.44;;;12.25;37.11
83664;BME280;73634;47.068;15.426;2024-02-14T07:22:31;98154.38;;;12.14;37.09
83664;BME280;73634;47.068;15.426;2024-02-14T07:24:56;98161.28;;;10.01;41.47
83664;BME280;73634;47.068;15.426;2024-02-14T07:29:53;98160.34;;;11.34;38.89
83664;BME280;73634;47.068;15.426;2024-02-14T07:32:19;98159.44;;;11.90;37.76
83664;BME280;73634;47.068;15.426;2024-02-14T07:34:45;98167.44;;;10.73;39.92
83664;BME280;73634;47.068;15.426;2024-02-14T07:37:11;98167.94;;;10.50;41.46
83664;BME280;73634;47.068;15.426;2024-02-14T07:39:36;98165.31;;;10.34;41.38
83664;BME280;73634;47.068;15.426;2024-02-14T07:42:02;98171.19;;;9.47;43.60
83664;BME280;73634;47.068;15.426;2024-02-14T07:44:27;98165.63;;;10.68;41.62
83664;BME280;73634;47.068;15.426;2024-02-14T07:46:53;98160.22;;;11.90;38.21
83664;BME280;73634;47.068;15.426;2024-02-14T07:49:18;98164.84;;;12.48;37.06
83664;BME280;73634;47.068;15.426;2024-02-14T07:51:45;98167.94;;;11.21;38.81
83664;BME280;73634;47.068;15.426;2024-02-14T07:55:49;98173.34;;;12.29;36.38
83664;BME280;73634;47.068;15.426;2024-02-14T07:58:15;98173.72;;;12.52;36.74
83664;BME280;73634;47.068;15.426;2024-02-14T08:00:40;98174.00;;;12.45;36.44
83664;BME280;73634;47.068;15.426;2024-02-14T08:03:06;98176.56;;;13.23;34.80
83664;BME280;73634;47.068;15.426;2024-02-14T08:05:31;98170.44;;;13.04;35.20
83664;BME280;73634;47.068;15.426;2024-02-14T08:07:56;98175.16;;;12.68;36.09
83664;BME280;73634;47.068;15.426;2024-02-14T08:10:22;98173.03;;;13.09;34.65
83664;BME280;73634;47.068;15.426;2024-02-14T08:12:47;98179.41;;;12.15;37.30
83664;BME280;73634;47.068;15.426;2024-02-14T08:15:13;98184.78;;;13.64;34.28
83664;BME280;73634;47.068;15.426;2024-02-14T08:17:38;98175.22;;;14.59;32.28
83664;BME280;73634;47.068;15.426;2024-02-14T08:20:04;98176.88;;;14.87;31.95
83664;BME280;73634;47.068;15.426;2024-02-14T08:24:46;98164.47;;;14.93;31.25
83664;BME280;73634;47.068;15.426;2024-02-14T08:27:11;98170.97;;;16.24;29.48
83664;BME280;73634;47.068;15.426;2024-02-14T08:29:37;98169.59;;;17.07;28.42
83664;BME280;73634;47.068;15.426;2024-02-14T08:32:02;98162.22;;;17.97;27.02
83664;BME280;73634;47.068;15.426;2024-02-14T08:34:28;98162.50;;;16.13;29.09
83664;BME280;73634;47.068;15.426;2024-02-14T08:36:54;98168.88;;;15.85;30.06
83664;BME280;73634;47.068;15.426;2024-02-14T08:39:19;98161.97;;;15.75;30.57
83664;BME280;73634;47.068;15.426;2024-02-14T08:41:45;98156.19;;;15.32;31.03
83664;BME280;73634;47.068;15.426;2024-02-14T08:44:15;98150.69;;;16.74;29.08
83664;BME280;73634;47.068;15.426;2024-02-14T08:48:27;98155.28;;;16.69;28.57
83664;BME280;73634;47.068;15.426;2024-02-14T08:50:55;98154.31;;;17.49;27.28
83664;BME280;73634;47.068;15.426;2024-02-14T08:53:20;98159.56;;;16.87;28.28
83664;BME280;73634;47.068;15.426;2024-02-14T08:55:46;98153.56;;;17.57;27.24
83664;BME280;73634;47.068;15.426;2024-02-14T08:58:11;98149.19;;;18.09;26.35
83664;BME280;73634;47.068;15.426;2024-02-14T09:00:37;98143.50;;;19.23;25.00
83664;BME280;73634;47.068;15.426;2024-02-14T09:03:04;98143.16;;;18.86;24.54
83664;BME280;73634;47.068;15.426;2024-02-14T09:05:29;98135.63;;;20.32;23.35
83664;BME280;73634;47.068;15.426;2024-02-14T09:07:55;98136.34;;;21.07;22.23
83664;BME280;73634;47.068;15.426;2024-02-14T09:13:08;98147.50;;;21.13;21.71
83664;BME280;73634;47.068;15.426;2024-02-14T09:15:34;98140.34;;;22.79;20.14
83664;BME280;73634;47.068;15.426;2024-02-14T09:17:59;98140.31;;;22.23;20.53
83664;BME280;73634;47.068;15.426;2024-02-14T09:20:25;98141.88;;;24.09;18.80
83664;BME280;73634;47.068;15.426;2024-02-14T09:22:51;98136.38;;;25.44;17.27
83664;BME280;73634;47.068;15.426;2024-02-14T09:25:16;98137.91;;;24.77;16.99
83664;BME280;73634;47.068;15.426;2024-02-14T09:27:42;98140.63;;;25.00;16.93
83664;BME280;73634;47.068;15.426;2024-02-14T09:30:08;98142.84;;;25.20;16.82
83664;BME280;73634;47.068;15.426;2024-02-14T09:32:34;98147.94;;;24.45;17.57
83664;BME280;73634;47.068;15.426;2024-02-14T09:37:04;98136.13;;;24.84;16.90
83664;BME280;73634;47.068;15.426;2024-02-14T09:39:31;98136.63;;;25.62;16.69
83664;BME280;73634;47.068;15.426;2024-02-14T09:41:59;98134.84;;;25.43;16.26
83664;BME280;73634;47.068;15.426;2024-02-14T09:44:31;98137.16;;;25.45;16.58
83664;BME280;73634;47.068;15.426;2024-02-14T09:46:58;98155.09;;;18.41;24.49
83664;BME280;73634;47.068;15.426;2024-02-14T09:49:25;98150.78;;;17.22;25.78
83664;BME280;73634;47.068;15.426;2024-02-14T09:51:51;98145.84;;;18.60;24.86
83664;BME280;73634;47.068;15.426;2024-02-14T09:54:17;98146.00;;;22.37;20.15
83664;BME280;73634;47.068;15.426;2024-02-14T09:56:49;98148.84;;;22.44;19.98
83664;BME280;73634;47.068;15.426;2024-02-14T10:02:13;98140.28;;;20.35;22.13
83664;BME280;73634;47.068;15.426;2024-02-14T10:04:38;98127.50;;;23.44;19.09
83664;BME280;73634;47.068;15.426;2024-02-14T10:07:04;98129.50;;;25.92;16.46
83664;BME280;73634;47.068;15.426;2024-02-14T10:09:30;98132.63;;;24.38;17.77
83664;BME280;73634;47.068;15.426;2024-02-14T10:11:55;98128.66;;;21.14;21.19
83664;BME280;73634;47.068;15.426;2024-02-14T10:14:23;98129.34;;;21.36;21.24
83664;BME280;73634;47.068;15.426;2024-02-14T10:16:48;98130.84;;;24.46;18.16
83664;BME280;73634;47.068;15.426;2024-02-14T10:19:15;98125.00;;;20.20;22.19
83664;BME280;73634;47.068;15.426;2024-02-14T10:21:41;98129.63;;;19.52;23.12
83664;BME280;73634;47.068;15.426;2024-02-14T10:27:06;98116.63;;;21.66;20.76
83664;BME280;73634;47.068;15.426;2024-02-14T10:29:33;98122.28;;;21.27;20.54
83664;BME280;73634;47.068;15.426;2024-02-14T10:31:59;98112.78;;;23.46;18.76
83664;BME280;73634;47.068;15.426;2024-02-14T10:34:25;98110.47;;;25.41;16.64
83664;BME280;73634;47.068;15.426;2024-02-14T10:36:52;98111.69;;;25.47;16.10
83664;BME280;73634;47.068;15.426;2024-02-14T10:39:19;98104.66;;;25.62;15.60
83664;BME280;73634;47.068;15.426;2024-02-14T10:41:44;98092.84;;;25.86;15.13
83664;BME280;73634;47.068;15.426;2024-02-14T10:44:10;98090.28;;;25.40;16.06
83664;BME280;73634;47.068;15.426;2024-02-14T10:46:37;98085.44;;;23.61;17.27
83664;BME280;73634;47.068;15.426;2024-02-14T10:51:40;98095.44;;;21.05;20.70
83664;BME280;73634;47.068;15.426;2024-02-14T10:54:10;98084.56;;;21.30;20.03
83664;BME280;73634;47.068;15.426;2024-02-14T10:56:39;98088.47;;;22.53;18.84
83664;BME280;73634;47.068;15.426;2024-02-14T10:59:06;98078.16;;;22.08;18.83
83664;BME280;73634;47.068;15.426;2024-02-14T11:01:34;98070.84;;;24.68;16.08
83664;BME280;73634;47.068;15.426;2024-02-14T11:04:02;98078.91;;;25.43;15.33
83664;BME280;73634;47.068;15.426;2024-02-14T11:06:30;98068.81;;;26.49;14.70
83664;BME280;73634;47.068;15.426;2024-02-14T11:09:01;98062.31;;;27.35;13.57
83664;BME280;73634;47.068;15.426;2024-02-14T11:11:33;98065.56;;;28.99;12.17
83664;BME280;73634;47.068;15.426;2024-02-14T11:16:26;98066.09;;;24.57;15.89
83664;BME280;73634;47.068;15.426;2024-02-14T11:19:12;98062.72;;;23.13;16.48
83664;BME280;73634;47.068;15.426;2024-02-14T11:21:47;98053.59;;;27.45;13.05
83664;BME280;73634;47.068;15.426;2024-02-14T11:24:14;98042.16;;;28.35;12.12
83664;BME280;73634;47.068;15.426;2024-02-14T11:26:47;98055.63;;;24.91;14.96
83664;BME280;73634;47.068;15.426;2024-02-14T11:29:15;98050.25;;;22.39;17.31
83664;BME280;73634;47.068;15.426;2024-02-14T11:31:47;98048.91;;;22.76;17.17
83664;BME280;73634;47.068;15.426;2024-02-14T11:34:15;98046.00;;;24.83;15.17
83664;BME280;73634;47.068;15.426;2024-02-14T11:36:45;98041.72;;;26.88;13.56
83664;BME280;73634;47.068;15.426;2024-02-14T11:40:46;98044.69;;;23.54;15.63
83664;BME280;73634;47.068;15.426;2024-02-14T11:43:19;98045.50;;;25.49;14.37
83664;BME280;73634;47.068;15.426;2024-02-14T11:45:45;98046.53;;;23.03;16.56
83664;BME280;73634;47.068;15.426;2024-02-14T11:48:14;98048.84;;;23.90;16.35
83664;BME280;73634;47.068;15.426;2024-02-14T11:50:40;98054.94;;;22.45;16.91
83664;BME280;73634;47.068;15.426;2024-02-14T11:53:06;98042.13;;;22.19;17.17
83664;BME280;73634;47.068;15.426;2024-02-14T11:55:36;98042.53;;;22.34;17.71
83664;BME280;73634;47.068;15.426;2024-02-14T11:58:02;98042.41;;;19.90;20.52
83664;BME280;73634;47.068;15.426;2024-02-14T12:00:28;98033.66;;;22.14;18.24
83664;BME280;73634;47.068;15.426;2024-02-14T12:04:43;98034.63;;;24.40;15.88
83664;BME280;73634;47.068;15.426;2024-02-14T12:07:08;98040.66;;;19.73;20.57
83664;BME280;73634;47.068;15.426;2024-02-14T12:09:34;98041.16;;;20.29;20.97
83664;BME280;73634;47.068;15.426;2024-02-14T12:12:00;98025.28;;;21.59;18.99
83664;BME280;73634;47.068;15.426;2024-02-14T12:14:26;98032.19;;;21.88;18.85
83664;BME280;73634;47.068;15.426;2024-02-14T12:16:59;98029.69;;;20.04;20.14
83664;BME280;73634;47.068;15.426;2024-02-14T12:19:27;98021.13;;;22.42;17.86
83664;BME280;73634;47.068;15.426;2024-02-14T12:21:53;98024.06;;;25.12;15.71
83664;BME280;73634;47.068;15.426;2024-02-14T12:24:20;98026.78;;;26.36;13.56
83664;BME280;73634;47.068;15.426;2024-02-14T12:29:23;98025.91;;;25.08;15.05
83664;BME280;73634;47.068;15.426;2024-02-14T12:31:49;98026.44;;;19.86;19.84
83664;BME280;73634;47.068;15.426;2024-02-14T12:34:14;98029.38;;;19.14;21.52
83664;BME280;73634;47.068;15.426;2024-02-14T12:36:40;98020.34;;;21.58;18.61
83664;BME280;73634;47.068;15.426;2024-02-14T12:39:05;98026.00;;;18.67;21.03
83664;BME280;73634;47.068;15.426;2024-02-14T12:41:31;98021.94;;;18.69;20.98
83664;BME280;73634;47.068;15.426;2024-02-14T12:43:59;98020.53;;;19.39;20.62
83664;BME280;73634;47.068;15.426;2024-02-14T12:46:25;98012.47;;;19.36;19.23
83664;BME280;73634;47.068;15.426;2024-02-14T12:48:50;98009.16;;;17.47;20.89
83664;BME280;73634;47.068;15.426;2024-02-14T12:54:33;98005.25;;;19.95;18.19
83664;BME280;73634;47.068;15.426;2024-02-14T12:56:59;98004.13;;;20.50;18.27
83664;BME280;73634;47.068;15.426;2024-02-14T12:59:24;98005.28;;;20.97;16.66
83664;BME280;73634;47.068;15.426;2024-02-14T13:01:49;98009.16;;;18.33;19.32
83664;BME280;73634;47.068;15.426;2024-02-14T13:04:15;98002.84;;;16.99;20.36
83664;BME280;73634;47.068;15.426;2024-02-14T13:06:42;97983.81;;;19.05;19.31
83664;BME280;73634;47.068;15.426;2024-02-14T13:09:07;97991.97;;;18.36;20.35
83664;BME280;73634;47.068;15.426;2024-02-14T13:11:33;97992.78;;;20.16;18.40
83664;BME280;73634;47.068;15.426;2024-02-14T13:15:44;97991.19;;;17.40;20.49
83664;BME280;73634;47.068;15.426;2024-02-14T13:18:10;97986.09;;;17.61;20.62
83664;BME280;73634;47.068;15.426;2024-02-14T13:20:35;97988.00;;;18.68;19.85
83664;BME280;73634;47.068;15.426;2024-02-14T13:23:02;97980.56;;;21.42;17.25
83664;BME280;73634;47.068;15.426;2024-02-14T13:25:28;97986.31;;;20.26;18.50
83664;BME280;73634;47.068;15.426;2024-02-14T13:27:54;97980.00;;;20.51;18.64
83664;BME280;73634;47.068;15.426;2024-02-14T13:30:20;97983.41;;;21.89;17.29
83664;BME280;73634;47.068;15.426;2024-02-14T13:32:46;97977.59;;;21.07;17.70
83664;BME280;73634;47.068;15.426;2024-02-14T13:36:24;97977.25;;;17.40;21.94
83664;BME280;73634;47.068;15.426;2024-02-14T13:38:50;97971.19;;;20.84;18.67
83664;BME280;73634;47.068;15.426;2024-02-14T13:41:16;97966.47;;;21.66;17.10
83664;BME280;73634;47.068;15.426;2024-02-14T13:43:41;97975.91;;;20.42;19.13
83664;BME280;73634;47.068;15.426;2024-02-14T13:46:07;97972.84;;;21.37;17.91
83664;BME280;73634;47.068;15.426;2024-02-14T13:48:34;97965.53;;;19.50;19.47
83664;BME280;73634;47.068;15.426;2024-02-14T13:51:00;97963.41;;;19.64;18.71
83664;BME280;73634;47.068;15.426;2024-02-14T13:53:26;97959.84;;;19.18;19.24
83664;BME280;73634;47.068;15.426;2024-02-14T13:55:51;97967.06;;;19.01;19.06
83664;BME280;73634;47.068;15.426;2024-02-14T13:59:50;97969.69;;;17.64;20.87
83664;BME280;73634;47.068;15.426;2024-02-14T14:02:16;97965.81;;;18.13;20.36